Garberville, California
Current Conditions -  °F | °C
As of 1:55 AM on Friday 19 Dec 2014 (Local Time) from KFOT Reporting Station
Overcast Overcast  
Wind Chill: 50°   Ceiling: 3000
Heat Index: 50°   Visibility: 5mi
Dew Point: 50°   Wind: 0mph
Humidity: 100%   Direction: NA
Pressure: 30.03"   Gusts: NA
Location:  40.1°N, 123.8°W
Report Text: KFOT 190955Z AUTO 00000KT 5SM SCT023 BKN030 OVC038 10/10 A3003 RMK AO1 P0014
Loading
Personal Weather Stations






























Interactive Weather Map New forecast layout! Learn more

10-Day Weather Forecast

Advertisements
Track Severe Weather on mobile